sensor_id;sensor_type;location;lat;lon;timestamp;P1;durP1;ratioP1;P2;durP2;ratioP2
57301;SDS011;43149;50.974;18.224;2023-08-21T00:06:49;15.10;;;10.60;;
57301;SDS011;43149;50.974;18.224;2023-08-21T00:16:32;7.20;;;5.80;;
57301;SDS011;43149;50.974;18.224;2023-08-21T00:26:15;7.60;;;6.90;;
57301;SDS011;43149;50.974;18.224;2023-08-21T00:35:58;13.40;;;7.80;;
57301;SDS011;43149;50.974;18.224;2023-08-21T00:45:42;4.10;;;2.80;;
57301;SDS011;43149;50.974;18.224;2023-08-21T00:55:26;8.70;;;7.30;;
57301;SDS011;43149;50.974;18.224;2023-08-21T01:05:10;7.20;;;6.60;;
57301;SDS011;43149;50.974;18.224;2023-08-21T01:15:11;12.80;;;11.50;;
57301;SDS011;43149;50.974;18.224;2023-08-21T01:25:04;15.70;;;10.40;;
57301;SDS011;43149;50.974;18.224;2023-08-21T01:35:03;16.00;;;8.00;;
57301;SDS011;43149;50.974;18.224;2023-08-21T01:44:50;11.50;;;9.30;;
57301;SDS011;43149;50.974;18.224;2023-08-21T01:54:32;14.60;;;9.20;;
57301;SDS011;43149;50.974;18.224;2023-08-21T02:04:14;14.00;;;12.50;;
57301;SDS011;43149;50.974;18.224;2023-08-21T02:13:57;13.60;;;12.30;;
57301;SDS011;43149;50.974;18.224;2023-08-21T02:23:40;12.00;;;8.80;;
57301;SDS011;43149;50.974;18.224;2023-08-21T02:33:22;13.50;;;12.10;;
57301;SDS011;43149;50.974;18.224;2023-08-21T02:43:05;11.90;;;10.60;;
57301;SDS011;43149;50.974;18.224;2023-08-21T02:52:47;16.80;;;15.10;;
57301;SDS011;43149;50.974;18.224;2023-08-21T03:02:33;15.70;;;13.50;;
57301;SDS011;43149;50.974;18.224;2023-08-21T03:19:32;10.10;;;9.10;;
57301;SDS011;43149;50.974;18.224;2023-08-21T03:29:14;10.60;;;9.60;;
57301;SDS011;43149;50.974;18.224;2023-08-21T03:38:58;16.50;;;10.90;;
57301;SDS011;43149;50.974;18.224;2023-08-21T03:48:40;14.20;;;10.00;;
57301;SDS011;43149;50.974;18.224;2023-08-21T03:58:23;19.20;;;14.00;;
57301;SDS011;43149;50.974;18.224;2023-08-21T04:08:07;22.50;;;15.70;;
57301;SDS011;43149;50.974;18.224;2023-08-21T04:17:50;17.50;;;14.80;;
57301;SDS011;43149;50.974;18.224;2023-08-21T04:27:35;18.90;;;16.90;;
57301;SDS011;43149;50.974;18.224;2023-08-21T04:37:24;26.10;;;15.40;;
57301;SDS011;43149;50.974;18.224;2023-08-21T04:48:12;36.00;;;21.90;;
57301;SDS011;43149;50.974;18.224;2023-08-21T04:57:54;23.70;;;17.90;;
57301;SDS011;43149;50.974;18.224;2023-08-21T05:07:37;22.80;;;16.60;;
57301;SDS011;43149;50.974;18.224;2023-08-21T05:17:20;31.50;;;21.20;;
57301;SDS011;43149;50.974;18.224;2023-08-21T05:27:03;41.50;;;28.10;;
57301;SDS011;43149;50.974;18.224;2023-08-21T05:36:46;27.50;;;16.40;;
57301;SDS011;43149;50.974;18.224;2023-08-21T05:46:29;17.50;;;14.90;;
57301;SDS011;43149;50.974;18.224;2023-08-21T05:56:12;17.80;;;14.50;;
57301;SDS011;43149;50.974;18.224;2023-08-21T06:03:28;37.40;;;28.00;;
57301;SDS011;43149;50.974;18.224;2023-08-21T06:13:11;17.70;;;13.30;;
57301;SDS011;43149;50.974;18.224;2023-08-21T06:23:14;11.70;;;8.60;;
57301;SDS011;43149;50.974;18.224;2023-08-21T06:33:01;8.10;;;7.30;;
57301;SDS011;43149;50.974;18.224;2023-08-21T06:42:46;6.70;;;6.10;;
57301;SDS011;43149;50.974;18.224;2023-08-21T06:52:31;8.30;;;5.50;;
57301;SDS011;43149;50.974;18.224;2023-08-21T07:02:14;8.70;;;6.90;;
57301;SDS011;43149;50.974;18.224;2023-08-21T07:11:57;8.20;;;7.40;;
57301;SDS011;43149;50.974;18.224;2023-08-21T07:21:40;7.30;;;6.70;;
57301;SDS011;43149;50.974;18.224;2023-08-21T07:38:43;8.30;;;7.50;;
57301;SDS011;43149;50.974;18.224;2023-08-21T07:48:35;6.60;;;6.00;;
57301;SDS011;43149;50.974;18.224;2023-08-21T07:58:18;5.80;;;5.20;;
57301;SDS011;43149;50.974;18.224;2023-08-21T08:08:02;12.90;;;4.50;;
57301;SDS011;43149;50.974;18.224;2023-08-21T08:17:46;4.60;;;4.30;;
57301;SDS011;43149;50.974;18.224;2023-08-21T08:27:31;5.00;;;4.60;;
57301;SDS011;43149;50.974;18.224;2023-08-21T08:37:15;4.10;;;3.80;;
57301;SDS011;43149;50.974;18.224;2023-08-21T08:47:00;4.00;;;3.50;;
57301;SDS011;43149;50.974;18.224;2023-08-21T08:56:48;7.30;;;4.10;;
57301;SDS011;43149;50.974;18.224;2023-08-21T09:06:32;4.40;;;4.10;;
57301;SDS011;43149;50.974;18.224;2023-08-21T09:16:17;4.40;;;4.00;;
57301;SDS011;43149;50.974;18.224;2023-08-21T09:26:26;5.40;;;4.90;;
57301;SDS011;43149;50.974;18.224;2023-08-21T09:36:20;6.90;;;5.50;;
57301;SDS011;43149;50.974;18.224;2023-08-21T09:58:43;4.70;;;4.30;;
57301;SDS011;43149;50.974;18.224;2023-08-21T10:08:36;3.80;;;3.60;;
57301;SDS011;43149;50.974;18.224;2023-08-21T10:19:32;12.20;;;8.20;;
57301;SDS011;43149;50.974;18.224;2023-08-21T10:45:54;9.40;;;8.60;;
57301;SDS011;43149;50.974;18.224;2023-08-21T10:59:52;4.80;;;4.30;;
57301;SDS011;43149;50.974;18.224;2023-08-21T11:14:32;4.60;;;4.30;;
57301;SDS011;43149;50.974;18.224;2023-08-21T11:24:17;3.70;;;3.40;;
57301;SDS011;43149;50.974;18.224;2023-08-21T11:34:00;7.90;;;6.30;;
57301;SDS011;43149;50.974;18.224;2023-08-21T11:43:49;3.50;;;3.20;;
57301;SDS011;43149;50.974;18.224;2023-08-21T11:53:38;4.10;;;3.70;;
57301;SDS011;43149;50.974;18.224;2023-08-21T12:03:36;3.10;;;2.90;;
57301;SDS011;43149;50.974;18.224;2023-08-21T12:13:28;9.80;;;4.50;;
57301;SDS011;43149;50.974;18.224;2023-08-21T12:23:15;4.00;;;2.70;;
57301;SDS011;43149;50.974;18.224;2023-08-21T12:32:59;2.70;;;2.50;;
57301;SDS011;43149;50.974;18.224;2023-08-21T12:42:42;4.60;;;2.70;;
57301;SDS011;43149;50.974;18.224;2023-08-21T12:52:29;8.20;;;3.20;;
57301;SDS011;43149;50.974;18.224;2023-08-21T13:02:31;3.10;;;2.90;;
57301;SDS011;43149;50.974;18.224;2023-08-21T13:12:14;2.80;;;2.50;;
57301;SDS011;43149;50.974;18.224;2023-08-21T13:21:58;4.20;;;3.80;;
57301;SDS011;43149;50.974;18.224;2023-08-21T13:31:46;2.70;;;2.60;;
57301;SDS011;43149;50.974;18.224;2023-08-21T13:41:42;5.10;;;4.00;;
57301;SDS011;43149;50.974;18.224;2023-08-21T13:51:26;4.30;;;3.20;;
57301;SDS011;43149;50.974;18.224;2023-08-21T14:01:08;9.20;;;3.70;;
57301;SDS011;43149;50.974;18.224;2023-08-21T14:10:51;7.30;;;3.20;;
57301;SDS011;43149;50.974;18.224;2023-08-21T14:20:33;2.50;;;2.40;;
57301;SDS011;43149;50.974;18.224;2023-08-21T14:30:18;2.10;;;1.90;;
57301;SDS011;43149;50.974;18.224;2023-08-21T14:40:01;2.40;;;2.30;;
57301;SDS011;43149;50.974;18.224;2023-08-21T14:49:49;2.50;;;2.30;;
57301;SDS011;43149;50.974;18.224;2023-08-21T14:59:34;2.60;;;2.40;;
57301;SDS011;43149;50.974;18.224;2023-08-21T15:16:36;42.60;;;13.80;;
57301;SDS011;43149;50.974;18.224;2023-08-21T15:26:19;2.30;;;1.80;;
57301;SDS011;43149;50.974;18.224;2023-08-21T15:36:04;4.40;;;2.70;;
57301;SDS011;43149;50.974;18.224;2023-08-21T15:45:47;1.30;;;1.10;;
57301;SDS011;43149;50.974;18.224;2023-08-21T15:55:29;18.70;;;5.10;;
57301;SDS011;43149;50.974;18.224;2023-08-21T16:05:13;2.60;;;2.40;;
57301;SDS011;43149;50.974;18.224;2023-08-21T16:14:57;2.30;;;1.90;;
57301;SDS011;43149;50.974;18.224;2023-08-21T16:24:40;2.00;;;1.80;;
57301;SDS011;43149;50.974;18.224;2023-08-21T16:34:23;2.30;;;2.20;;
57301;SDS011;43149;50.974;18.224;2023-08-21T16:44:07;1.90;;;1.80;;
57301;SDS011;43149;50.974;18.224;2023-08-21T16:53:51;13.20;;;1.60;;
57301;SDS011;43149;50.974;18.224;2023-08-21T17:03:34;3.00;;;2.70;;
57301;SDS011;43149;50.974;18.224;2023-08-21T17:14:11;5.90;;;3.30;;
57301;SDS011;43149;50.974;18.224;2023-08-21T17:24:14;3.40;;;1.80;;
57301;SDS011;43149;50.974;18.224;2023-08-21T17:33:57;2.00;;;1.80;;
57301;SDS011;43149;50.974;18.224;2023-08-21T17:43:39;2.80;;;2.60;;
57301;SDS011;43149;50.974;18.224;2023-08-21T17:53:24;3.00;;;2.70;;
57301;SDS011;43149;50.974;18.224;2023-08-21T18:03:07;4.30;;;3.90;;
57301;SDS011;43149;50.974;18.224;2023-08-21T18:12:50;2.50;;;2.20;;
57301;SDS011;43149;50.974;18.224;2023-08-21T18:22:33;12.20;;;7.40;;
57301;SDS011;43149;50.974;18.224;2023-08-21T18:32:16;9.10;;;3.30;;
57301;SDS011;43149;50.974;18.224;2023-08-21T18:41:59;1.90;;;1.80;;
57301;SDS011;43149;50.974;18.224;2023-08-21T18:51:42;5.70;;;3.80;;
57301;SDS011;43149;50.974;18.224;2023-08-21T19:01:27;6.50;;;4.60;;
57301;SDS011;43149;50.974;18.224;2023-08-21T19:11:11;16.70;;;8.80;;
57301;SDS011;43149;50.974;18.224;2023-08-21T19:20:56;7.00;;;6.50;;
57301;SDS011;43149;50.974;18.224;2023-08-21T19:30:42;4.40;;;4.00;;
57301;SDS011;43149;50.974;18.224;2023-08-21T19:40:37;5.30;;;4.80;;
57301;SDS011;43149;50.974;18.224;2023-08-21T19:50:21;13.00;;;5.20;;
57301;SDS011;43149;50.974;18.224;2023-08-21T20:00:06;7.20;;;5.80;;
57301;SDS011;43149;50.974;18.224;2023-08-21T20:09:54;5.50;;;3.60;;
57301;SDS011;43149;50.974;18.224;2023-08-21T20:19:37;3.30;;;3.10;;
57301;SDS011;43149;50.974;18.224;2023-08-21T20:29:22;2.70;;;2.50;;
57301;SDS011;43149;50.974;18.224;2023-08-21T20:39:06;14.10;;;4.30;;
57301;SDS011;43149;50.974;18.224;2023-08-21T20:48:48;4.10;;;2.80;;
57301;SDS011;43149;50.974;18.224;2023-08-21T20:58:35;6.90;;;5.40;;
57301;SDS011;43149;50.974;18.224;2023-08-21T21:08:22;4.20;;;3.90;;
57301;SDS011;43149;50.974;18.224;2023-08-21T21:18:04;5.40;;;4.50;;
57301;SDS011;43149;50.974;18.224;2023-08-21T21:27:47;18.30;;;5.20;;
57301;SDS011;43149;50.974;18.224;2023-08-21T21:37:30;5.50;;;5.20;;
57301;SDS011;43149;50.974;18.224;2023-08-21T21:47:18;3.70;;;3.50;;
57301;SDS011;43149;50.974;18.224;2023-08-21T21:57:01;3.70;;;3.40;;
57301;SDS011;43149;50.974;18.224;2023-08-21T22:06:45;3.60;;;3.30;;
57301;SDS011;43149;50.974;18.224;2023-08-21T22:16:28;15.70;;;6.20;;
57301;SDS011;43149;50.974;18.224;2023-08-21T22:34:29;14.60;;;9.00;;
57301;SDS011;43149;50.974;18.224;2023-08-21T22:45:52;4.80;;;4.40;;
57301;SDS011;43149;50.974;18.224;2023-08-21T22:55:37;8.50;;;4.10;;
57301;SDS011;43149;50.974;18.224;2023-08-21T23:05:21;5.20;;;4.70;;
57301;SDS011;43149;50.974;18.224;2023-08-21T23:15:06;2.80;;;2.60;;
57301;SDS011;43149;50.974;18.224;2023-08-21T23:32:09;8.60;;;4.30;;
57301;SDS011;43149;50.974;18.224;2023-08-21T23:41:52;3.10;;;2.90;;
57301;SDS011;43149;50.974;18.224;2023-08-21T23:51:35;6.90;;;3.90;;
